sensor_id;sensor_type;location;lat;lon;timestamp;P1;durP1;ratioP1;P2;durP2;ratioP2
58681;SDS011;44460;40.162;18.294;2023-05-10T00:00:12;13.63;;;7.15;;
58681;SDS011;44460;40.162;18.294;2023-05-10T00:02:38;12.65;;;6.82;;
58681;SDS011;44460;40.162;18.294;2023-05-10T00:05:04;14.98;;;6.50;;
58681;SDS011;44460;40.162;18.294;2023-05-10T00:07:29;13.43;;;6.20;;
58681;SDS011;44460;40.162;18.294;2023-05-10T00:09:55;15.23;;;6.35;;
58681;SDS011;44460;40.162;18.294;2023-05-10T00:12:20;14.02;;;7.70;;
58681;SDS011;44460;40.162;18.294;2023-05-10T00:14:45;14.00;;;6.65;;
58681;SDS011;44460;40.162;18.294;2023-05-10T00:17:11;16.17;;;6.78;;
58681;SDS011;44460;40.162;18.294;2023-05-10T00:19:36;9.52;;;6.22;;
58681;SDS011;44460;40.162;18.294;2023-05-10T00:22:02;13.65;;;6.57;;
58681;SDS011;44460;40.162;18.294;2023-05-10T00:24:28;11.07;;;6.57;;
58681;SDS011;44460;40.162;18.294;2023-05-10T00:26:53;13.27;;;7.25;;
58681;SDS011;44460;40.162;18.294;2023-05-10T00:29:18;11.02;;;6.50;;
58681;SDS011;44460;40.162;18.294;2023-05-10T00:31:44;11.77;;;6.20;;
58681;SDS011;44460;40.162;18.294;2023-05-10T00:34:10;14.93;;;6.72;;
58681;SDS011;44460;40.162;18.294;2023-05-10T00:36:36;13.02;;;5.97;;
58681;SDS011;44460;40.162;18.294;2023-05-10T00:39:01;12.10;;;5.97;;
58681;SDS011;44460;40.162;18.294;2023-05-10T00:41:28;12.52;;;6.65;;
58681;SDS011;44460;40.162;18.294;2023-05-10T00:43:54;10.27;;;6.20;;
58681;SDS011;44460;40.162;18.294;2023-05-10T00:46:20;11.18;;;6.93;;
58681;SDS011;44460;40.162;18.294;2023-05-10T00:48:46;10.85;;;6.22;;
58681;SDS011;44460;40.162;18.294;2023-05-10T00:51:12;10.35;;;6.40;;
58681;SDS011;44460;40.162;18.294;2023-05-10T00:53:38;10.68;;;6.25;;
58681;SDS011;44460;40.162;18.294;2023-05-10T00:56:03;10.32;;;6.95;;
58681;SDS011;44460;40.162;18.294;2023-05-10T00:58:29;9.75;;;5.97;;
58681;SDS011;44460;40.162;18.294;2023-05-10T01:00:56;14.57;;;6.35;;
58681;SDS011;44460;40.162;18.294;2023-05-10T01:03:22;12.07;;;5.82;;
58681;SDS011;44460;40.162;18.294;2023-05-10T01:05:47;12.13;;;7.25;;
58681;SDS011;44460;40.162;18.294;2023-05-10T01:08:13;12.15;;;6.78;;
58681;SDS011;44460;40.162;18.294;2023-05-10T01:10:38;10.65;;;7.10;;
58681;SDS011;44460;40.162;18.294;2023-05-10T01:13:04;12.88;;;7.55;;
58681;SDS011;44460;40.162;18.294;2023-05-10T01:15:29;14.43;;;8.02;;
58681;SDS011;44460;40.162;18.294;2023-05-10T01:17:55;17.50;;;8.30;;
58681;SDS011;44460;40.162;18.294;2023-05-10T01:20:27;11.45;;;8.05;;
58681;SDS011;44460;40.162;18.294;2023-05-10T01:26:14;13.55;;;8.20;;
58681;SDS011;44460;40.162;18.294;2023-05-10T01:39:11;17.67;;;9.82;;
58681;SDS011;44460;40.162;18.294;2023-05-10T01:41:41;19.42;;;10.75;;
58681;SDS011;44460;40.162;18.294;2023-05-10T01:46:38;18.10;;;11.30;;
58681;SDS011;44460;40.162;18.294;2023-05-10T01:49:08;19.15;;;11.65;;
58681;SDS011;44460;40.162;18.294;2023-05-10T01:51:53;19.38;;;11.27;;
58681;SDS011;44460;40.162;18.294;2023-05-10T01:54:20;20.23;;;11.82;;
58681;SDS011;44460;40.162;18.294;2023-05-10T01:56:47;21.42;;;11.75;;
58681;SDS011;44460;40.162;18.294;2023-05-10T01:59:17;21.83;;;12.73;;
58681;SDS011;44460;40.162;18.294;2023-05-10T02:04:09;19.33;;;11.75;;
58681;SDS011;44460;40.162;18.294;2023-05-10T02:06:36;24.33;;;12.18;;
58681;SDS011;44460;40.162;18.294;2023-05-10T02:09:03;20.27;;;12.80;;
58681;SDS011;44460;40.162;18.294;2023-05-10T02:11:30;22.55;;;12.38;;
58681;SDS011;44460;40.162;18.294;2023-05-10T02:13:56;21.38;;;13.07;;
58681;SDS011;44460;40.162;18.294;2023-05-10T02:16:26;24.02;;;10.60;;
58681;SDS011;44460;40.162;18.294;2023-05-10T02:18:52;15.98;;;9.88;;
58681;SDS011;44460;40.162;18.294;2023-05-10T02:21:19;22.35;;;11.45;;
58681;SDS011;44460;40.162;18.294;2023-05-10T02:23:45;21.42;;;12.65;;
58681;SDS011;44460;40.162;18.294;2023-05-10T02:26:11;25.85;;;11.32;;
58681;SDS011;44460;40.162;18.294;2023-05-10T02:28:38;19.70;;;10.60;;
58681;SDS011;44460;40.162;18.294;2023-05-10T02:31:04;19.02;;;9.85;;
58681;SDS011;44460;40.162;18.294;2023-05-10T02:33:30;15.18;;;10.13;;
58681;SDS011;44460;40.162;18.294;2023-05-10T02:35:59;14.98;;;10.52;;
58681;SDS011;44460;40.162;18.294;2023-05-10T02:38:25;16.63;;;11.13;;
58681;SDS011;44460;40.162;18.294;2023-05-10T02:40:51;17.38;;;10.30;;
58681;SDS011;44460;40.162;18.294;2023-05-10T02:43:17;16.42;;;11.13;;
58681;SDS011;44460;40.162;18.294;2023-05-10T02:45:43;15.73;;;10.80;;
58681;SDS011;44460;40.162;18.294;2023-05-10T02:48:11;15.55;;;10.48;;
58681;SDS011;44460;40.162;18.294;2023-05-10T02:50:37;14.80;;;10.77;;
58681;SDS011;44460;40.162;18.294;2023-05-10T02:55:32;15.82;;;10.75;;
58681;SDS011;44460;40.162;18.294;2023-05-10T02:57:58;21.98;;;11.82;;
58681;SDS011;44460;40.162;18.294;2023-05-10T03:00:24;20.90;;;10.15;;
58681;SDS011;44460;40.162;18.294;2023-05-10T03:02:50;17.55;;;9.45;;
58681;SDS011;44460;40.162;18.294;2023-05-10T03:05:16;17.15;;;8.82;;
58681;SDS011;44460;40.162;18.294;2023-05-10T03:07:41;17.48;;;8.43;;
58681;SDS011;44460;40.162;18.294;2023-05-10T03:10:07;15.98;;;7.85;;
58681;SDS011;44460;40.162;18.294;2023-05-10T03:12:47;14.02;;;7.95;;
58681;SDS011;44460;40.162;18.294;2023-05-10T03:15:16;14.00;;;8.18;;
58681;SDS011;44460;40.162;18.294;2023-05-10T03:17:47;13.18;;;7.45;;
58681;SDS011;44460;40.162;18.294;2023-05-10T03:20:20;11.77;;;7.13;;
58681;SDS011;44460;40.162;18.294;2023-05-10T03:22:49;13.82;;;8.07;;
58681;SDS011;44460;40.162;18.294;2023-05-10T03:25:15;16.17;;;7.22;;
58681;SDS011;44460;40.162;18.294;2023-05-10T03:27:42;15.75;;;7.53;;
58681;SDS011;44460;40.162;18.294;2023-05-10T03:30:10;15.55;;;7.72;;
58681;SDS011;44460;40.162;18.294;2023-05-10T03:32:36;11.73;;;6.65;;
58681;SDS011;44460;40.162;18.294;2023-05-10T03:35:06;19.10;;;8.10;;
58681;SDS011;44460;40.162;18.294;2023-05-10T03:37:32;12.93;;;7.20;;
58681;SDS011;44460;40.162;18.294;2023-05-10T03:39:57;13.35;;;8.32;;
58681;SDS011;44460;40.162;18.294;2023-05-10T03:42:23;14.25;;;7.07;;
58681;SDS011;44460;40.162;18.294;2023-05-10T03:44:48;16.80;;;7.63;;
58681;SDS011;44460;40.162;18.294;2023-05-10T03:47:14;11.30;;;6.57;;
58681;SDS011;44460;40.162;18.294;2023-05-10T03:49:40;13.10;;;7.30;;
58681;SDS011;44460;40.162;18.294;2023-05-10T03:52:05;12.70;;;7.22;;
58681;SDS011;44460;40.162;18.294;2023-05-10T03:54:31;14.55;;;7.32;;
58681;SDS011;44460;40.162;18.294;2023-05-10T03:56:57;13.13;;;7.53;;
58681;SDS011;44460;40.162;18.294;2023-05-10T03:59:22;11.35;;;7.60;;
58681;SDS011;44460;40.162;18.294;2023-05-10T04:01:50;11.68;;;7.07;;
58681;SDS011;44460;40.162;18.294;2023-05-10T04:04:15;13.32;;;6.68;;
58681;SDS011;44460;40.162;18.294;2023-05-10T04:09:08;17.00;;;7.78;;
58681;SDS011;44460;40.162;18.294;2023-05-10T04:11:34;17.05;;;7.90;;
58681;SDS011;44460;40.162;18.294;2023-05-10T04:13:59;18.65;;;7.65;;
58681;SDS011;44460;40.162;18.294;2023-05-10T04:16:25;22.38;;;8.25;;
58681;SDS011;44460;40.162;18.294;2023-05-10T04:18:50;23.00;;;7.53;;
58681;SDS011;44460;40.162;18.294;2023-05-10T04:21:15;18.58;;;7.97;;
58681;SDS011;44460;40.162;18.294;2023-05-10T04:23:41;24.02;;;9.40;;
58681;SDS011;44460;40.162;18.294;2023-05-10T04:26:06;26.08;;;9.27;;
58681;SDS011;44460;40.162;18.294;2023-05-10T04:28:32;21.75;;;9.32;;
58681;SDS011;44460;40.162;18.294;2023-05-10T04:31:01;28.45;;;10.38;;
58681;SDS011;44460;40.162;18.294;2023-05-10T04:33:27;22.35;;;9.30;;
58681;SDS011;44460;40.162;18.294;2023-05-10T04:35:52;24.80;;;9.25;;
58681;SDS011;44460;40.162;18.294;2023-05-10T04:38:18;20.65;;;8.65;;
58681;SDS011;44460;40.162;18.294;2023-05-10T04:40:43;22.70;;;9.63;;
58681;SDS011;44460;40.162;18.294;2023-05-10T04:43:09;16.13;;;8.75;;
58681;SDS011;44460;40.162;18.294;2023-05-10T04:45:34;22.55;;;8.48;;
58681;SDS011;44460;40.162;18.294;2023-05-10T04:47:59;13.85;;;7.78;;
58681;SDS011;44460;40.162;18.294;2023-05-10T04:50:25;15.45;;;8.23;;
58681;SDS011;44460;40.162;18.294;2023-05-10T04:52:50;16.77;;;7.90;;
58681;SDS011;44460;40.162;18.294;2023-05-10T04:55:16;20.70;;;7.80;;
58681;SDS011;44460;40.162;18.294;2023-05-10T04:57:41;19.45;;;7.43;;
58681;SDS011;44460;40.162;18.294;2023-05-10T05:00:06;16.15;;;8.35;;
58681;SDS011;44460;40.162;18.294;2023-05-10T05:02:32;17.85;;;7.47;;
58681;SDS011;44460;40.162;18.294;2023-05-10T05:05:15;26.13;;;8.63;;
58681;SDS011;44460;40.162;18.294;2023-05-10T05:07:41;15.52;;;8.02;;
58681;SDS011;44460;40.162;18.294;2023-05-10T05:10:07;13.05;;;7.65;;
58681;SDS011;44460;40.162;18.294;2023-05-10T05:12:42;14.05;;;7.85;;
58681;SDS011;44460;40.162;18.294;2023-05-10T05:15:07;15.20;;;7.50;;
58681;SDS011;44460;40.162;18.294;2023-05-10T05:17:35;14.77;;;7.97;;
58681;SDS011;44460;40.162;18.294;2023-05-10T05:20:00;19.75;;;8.38;;
58681;SDS011;44460;40.162;18.294;2023-05-10T05:22:26;13.13;;;7.38;;
58681;SDS011;44460;40.162;18.294;2023-05-10T05:24:54;16.02;;;8.15;;
58681;SDS011;44460;40.162;18.294;2023-05-10T05:27:20;17.10;;;8.50;;
58681;SDS011;44460;40.162;18.294;2023-05-10T05:29:50;16.27;;;7.43;;
58681;SDS011;44460;40.162;18.294;2023-05-10T05:32:15;14.00;;;7.15;;
58681;SDS011;44460;40.162;18.294;2023-05-10T05:34:41;18.45;;;7.72;;
58681;SDS011;44460;40.162;18.294;2023-05-10T05:37:06;13.95;;;8.57;;
58681;SDS011;44460;40.162;18.294;2023-05-10T05:39:32;15.85;;;7.05;;
58681;SDS011;44460;40.162;18.294;2023-05-10T05:41:57;11.20;;;7.55;;
58681;SDS011;44460;40.162;18.294;2023-05-10T05:44:23;19.83;;;7.50;;
58681;SDS011;44460;40.162;18.294;2023-05-10T05:46:48;16.77;;;7.72;;
58681;SDS011;44460;40.162;18.294;2023-05-10T05:49:14;16.63;;;7.47;;
58681;SDS011;44460;40.162;18.294;2023-05-10T05:51:39;11.70;;;7.68;;
58681;SDS011;44460;40.162;18.294;2023-05-10T05:54:05;15.20;;;7.90;;
58681;SDS011;44460;40.162;18.294;2023-05-10T05:56:30;12.73;;;7.60;;
58681;SDS011;44460;40.162;18.294;2023-05-10T05:58:55;15.23;;;7.25;;
58681;SDS011;44460;40.162;18.294;2023-05-10T06:01:21;11.20;;;6.90;;
58681;SDS011;44460;40.162;18.294;2023-05-10T06:03:46;13.02;;;7.13;;
58681;SDS011;44460;40.162;18.294;2023-05-10T06:06:12;12.52;;;6.68;;
58681;SDS011;44460;40.162;18.294;2023-05-10T06:08:37;11.48;;;6.85;;
58681;SDS011;44460;40.162;18.294;2023-05-10T06:11:03;13.82;;;6.85;;
58681;SDS011;44460;40.162;18.294;2023-05-10T06:13:29;15.57;;;6.65;;
58681;SDS011;44460;40.162;18.294;2023-05-10T06:15:57;12.88;;;5.85;;
58681;SDS011;44460;40.162;18.294;2023-05-10T06:18:23;12.32;;;6.30;;
58681;SDS011;44460;40.162;18.294;2023-05-10T06:20:49;10.43;;;5.82;;
58681;SDS011;44460;40.162;18.294;2023-05-10T06:23:14;10.98;;;6.40;;
58681;SDS011;44460;40.162;18.294;2023-05-10T06:25:40;16.77;;;6.75;;
58681;SDS011;44460;40.162;18.294;2023-05-10T06:28:05;15.20;;;6.70;;
58681;SDS011;44460;40.162;18.294;2023-05-10T06:30:31;9.65;;;5.78;;
58681;SDS011;44460;40.162;18.294;2023-05-10T06:32:56;15.35;;;6.78;;
58681;SDS011;44460;40.162;18.294;2023-05-10T06:35:22;12.52;;;5.90;;
58681;SDS011;44460;40.162;18.294;2023-05-10T06:37:47;12.18;;;6.45;;
58681;SDS011;44460;40.162;18.294;2023-05-10T06:40:13;12.60;;;6.15;;
58681;SDS011;44460;40.162;18.294;2023-05-10T06:42:39;9.90;;;5.75;;
58681;SDS011;44460;40.162;18.294;2023-05-10T06:45:04;12.52;;;6.38;;
58681;SDS011;44460;40.162;18.294;2023-05-10T06:47:30;13.23;;;6.65;;
58681;SDS011;44460;40.162;18.294;2023-05-10T06:49:56;9.27;;;5.05;;
58681;SDS011;44460;40.162;18.294;2023-05-10T06:52:22;10.88;;;5.60;;
58681;SDS011;44460;40.162;18.294;2023-05-10T06:54:48;8.95;;;5.63;;
58681;SDS011;44460;40.162;18.294;2023-05-10T06:57:13;10.82;;;5.45;;
58681;SDS011;44460;40.162;18.294;2023-05-10T06:59:39;12.25;;;5.35;;
58681;SDS011;44460;40.162;18.294;2023-05-10T07:02:04;11.25;;;5.32;;
58681;SDS011;44460;40.162;18.294;2023-05-10T07:04:30;9.75;;;5.22;;
58681;SDS011;44460;40.162;18.294;2023-05-10T07:06:56;9.18;;;4.88;;
58681;SDS011;44460;40.162;18.294;2023-05-10T07:09:22;11.48;;;5.07;;
58681;SDS011;44460;40.162;18.294;2023-05-10T07:11:48;11.60;;;5.45;;
58681;SDS011;44460;40.162;18.294;2023-05-10T07:14:14;8.32;;;4.95;;
58681;SDS011;44460;40.162;18.294;2023-05-10T07:16:39;14.75;;;5.70;;
58681;SDS011;44460;40.162;18.294;2023-05-10T07:19:04;10.15;;;4.80;;
58681;SDS011;44460;40.162;18.294;2023-05-10T07:21:30;9.25;;;4.93;;
58681;SDS011;44460;40.162;18.294;2023-05-10T07:23:56;9.75;;;5.00;;
58681;SDS011;44460;40.162;18.294;2023-05-10T07:26:21;10.93;;;5.63;;
58681;SDS011;44460;40.162;18.294;2023-05-10T07:28:47;11.77;;;5.72;;
58681;SDS011;44460;40.162;18.294;2023-05-10T07:31:12;14.02;;;8.00;;
58681;SDS011;44460;40.162;18.294;2023-05-10T07:33:38;11.85;;;5.70;;
58681;SDS011;44460;40.162;18.294;2023-05-10T07:36:03;9.43;;;5.18;;
58681;SDS011;44460;40.162;18.294;2023-05-10T07:38:28;11.30;;;5.45;;
58681;SDS011;44460;40.162;18.294;2023-05-10T07:40:54;8.57;;;4.72;;
58681;SDS011;44460;40.162;18.294;2023-05-10T07:43:19;8.60;;;5.25;;
58681;SDS011;44460;40.162;18.294;2023-05-10T07:45:45;12.65;;;5.15;;
58681;SDS011;44460;40.162;18.294;2023-05-10T07:48:10;15.32;;;5.57;;
58681;SDS011;44460;40.162;18.294;2023-05-10T07:50:36;17.77;;;5.93;;
58681;SDS011;44460;40.162;18.294;2023-05-10T07:53:01;19.98;;;5.68;;
58681;SDS011;44460;40.162;18.294;2023-05-10T07:55:27;8.52;;;5.32;;
58681;SDS011;44460;40.162;18.294;2023-05-10T07:57:52;9.35;;;5.55;;
58681;SDS011;44460;40.162;18.294;2023-05-10T08:00:18;10.82;;;5.47;;
58681;SDS011;44460;40.162;18.294;2023-05-10T08:02:44;11.30;;;5.47;;
58681;SDS011;44460;40.162;18.294;2023-05-10T08:05:10;12.98;;;5.35;;
58681;SDS011;44460;40.162;18.294;2023-05-10T08:07:35;11.70;;;4.97;;
58681;SDS011;44460;40.162;18.294;2023-05-10T08:10:01;11.02;;;6.35;;
58681;SDS011;44460;40.162;18.294;2023-05-10T08:12:27;16.27;;;6.28;;
58681;SDS011;44460;40.162;18.294;2023-05-10T08:14:52;11.82;;;6.13;;
58681;SDS011;44460;40.162;18.294;2023-05-10T08:17:17;12.48;;;6.00;;
58681;SDS011;44460;40.162;18.294;2023-05-10T08:19:43;12.95;;;6.25;;
58681;SDS011;44460;40.162;18.294;2023-05-10T08:22:08;16.13;;;6.55;;
58681;SDS011;44460;40.162;18.294;2023-05-10T08:24:34;12.57;;;6.40;;
58681;SDS011;44460;40.162;18.294;2023-05-10T08:27:03;10.40;;;7.18;;
58681;SDS011;44460;40.162;18.294;2023-05-10T08:29:29;13.30;;;6.70;;
58681;SDS011;44460;40.162;18.294;2023-05-10T08:31:54;12.95;;;7.18;;
58681;SDS011;44460;40.162;18.294;2023-05-10T08:34:19;10.55;;;7.07;;
58681;SDS011;44460;40.162;18.294;2023-05-10T08:36:45;13.35;;;6.30;;
58681;SDS011;44460;40.162;18.294;2023-05-10T08:39:10;11.15;;;5.75;;
58681;SDS011;44460;40.162;18.294;2023-05-10T08:41:36;11.50;;;6.28;;
58681;SDS011;44460;40.162;18.294;2023-05-10T08:44:04;11.63;;;5.65;;
58681;SDS011;44460;40.162;18.294;2023-05-10T08:46:30;9.30;;;5.55;;
58681;SDS011;44460;40.162;18.294;2023-05-10T08:48:56;10.18;;;4.97;;
58681;SDS011;44460;40.162;18.294;2023-05-10T08:51:24;11.02;;;5.80;;
58681;SDS011;44460;40.162;18.294;2023-05-10T08:53:52;11.02;;;4.82;;
58681;SDS011;44460;40.162;18.294;2023-05-10T08:56:18;8.70;;;5.15;;
58681;SDS011;44460;40.162;18.294;2023-05-10T08:58:45;14.13;;;5.50;;
58681;SDS011;44460;40.162;18.294;2023-05-10T09:01:11;11.65;;;5.32;;
58681;SDS011;44460;40.162;18.294;2023-05-10T09:03:38;12.70;;;5.55;;
58681;SDS011;44460;40.162;18.294;2023-05-10T09:06:03;8.52;;;5.57;;
58681;SDS011;44460;40.162;18.294;2023-05-10T09:08:30;13.07;;;5.20;;
58681;SDS011;44460;40.162;18.294;2023-05-10T09:10:56;10.88;;;5.40;;
58681;SDS011;44460;40.162;18.294;2023-05-10T09:13:22;13.43;;;5.40;;
58681;SDS011;44460;40.162;18.294;2023-05-10T09:15:48;17.13;;;4.47;;
58681;SDS011;44460;40.162;18.294;2023-05-10T09:18:14;8.82;;;4.95;;
58681;SDS011;44460;40.162;18.294;2023-05-10T09:20:40;11.30;;;4.40;;
58681;SDS011;44460;40.162;18.294;2023-05-10T09:23:05;15.35;;;4.30;;
58681;SDS011;44460;40.162;18.294;2023-05-10T09:25:31;9.93;;;3.97;;
58681;SDS011;44460;40.162;18.294;2023-05-10T09:28:00;10.75;;;4.40;;
58681;SDS011;44460;40.162;18.294;2023-05-10T09:30:26;8.77;;;3.92;;
58681;SDS011;44460;40.162;18.294;2023-05-10T09:32:52;11.82;;;4.05;;
58681;SDS011;44460;40.162;18.294;2023-05-10T09:35:18;7.65;;;3.70;;
58681;SDS011;44460;40.162;18.294;2023-05-10T09:37:48;9.67;;;4.30;;
58681;SDS011;44460;40.162;18.294;2023-05-10T09:40:16;11.68;;;3.33;;
58681;SDS011;44460;40.162;18.294;2023-05-10T09:42:42;7.93;;;3.30;;
58681;SDS011;44460;40.162;18.294;2023-05-10T09:45:15;8.82;;;3.45;;
58681;SDS011;44460;40.162;18.294;2023-05-10T09:47:40;10.10;;;3.30;;
58681;SDS011;44460;40.162;18.294;2023-05-10T09:50:06;7.47;;;3.65;;
58681;SDS011;44460;40.162;18.294;2023-05-10T09:52:53;10.88;;;3.83;;
58681;SDS011;44460;40.162;18.294;2023-05-10T09:55:19;7.10;;;3.15;;
58681;SDS011;44460;40.162;18.294;2023-05-10T09:57:45;11.00;;;4.25;;
58681;SDS011;44460;40.162;18.294;2023-05-10T10:00:11;10.30;;;4.47;;
58681;SDS011;44460;40.162;18.294;2023-05-10T10:02:41;9.50;;;4.78;;
58681;SDS011;44460;40.162;18.294;2023-05-10T10:05:06;10.52;;;3.70;;
58681;SDS011;44460;40.162;18.294;2023-05-10T10:07:32;11.55;;;4.32;;
58681;SDS011;44460;40.162;18.294;2023-05-10T10:09:58;11.57;;;4.15;;
58681;SDS011;44460;40.162;18.294;2023-05-10T10:12:24;12.90;;;3.80;;
58681;SDS011;44460;40.162;18.294;2023-05-10T10:14:50;8.10;;;4.25;;
58681;SDS011;44460;40.162;18.294;2023-05-10T10:17:16;10.93;;;4.50;;
58681;SDS011;44460;40.162;18.294;2023-05-10T10:19:41;7.88;;;4.13;;
58681;SDS011;44460;40.162;18.294;2023-05-10T10:22:07;12.45;;;4.30;;
58681;SDS011;44460;40.162;18.294;2023-05-10T10:24:32;9.63;;;3.75;;
58681;SDS011;44460;40.162;18.294;2023-05-10T10:27:09;9.05;;;3.97;;
58681;SDS011;44460;40.162;18.294;2023-05-10T10:32:12;18.50;;;3.75;;
58681;SDS011;44460;40.162;18.294;2023-05-10T10:34:44;9.50;;;3.92;;
58681;SDS011;44460;40.162;18.294;2023-05-10T10:37:10;11.40;;;4.13;;
58681;SDS011;44460;40.162;18.294;2023-05-10T10:39:35;10.50;;;4.05;;
58681;SDS011;44460;40.162;18.294;2023-05-10T10:42:02;14.95;;;4.00;;
58681;SDS011;44460;40.162;18.294;2023-05-10T10:52:15;19.17;;;4.47;;
58681;SDS011;44460;40.162;18.294;2023-05-10T10:54:41;11.35;;;3.70;;
58681;SDS011;44460;40.162;18.294;2023-05-10T10:57:10;9.63;;;3.67;;
58681;SDS011;44460;40.162;18.294;2023-05-10T10:59:35;13.27;;;4.15;;
58681;SDS011;44460;40.162;18.294;2023-05-10T11:02:01;10.55;;;4.47;;
58681;SDS011;44460;40.162;18.294;2023-05-10T11:04:27;9.18;;;3.83;;
58681;SDS011;44460;40.162;18.294;2023-05-10T11:06:53;9.13;;;4.00;;
58681;SDS011;44460;40.162;18.294;2023-05-10T11:09:39;8.02;;;3.85;;
58681;SDS011;44460;40.162;18.294;2023-05-10T11:12:07;7.55;;;3.40;;
58681;SDS011;44460;40.162;18.294;2023-05-10T11:14:33;9.10;;;4.13;;
58681;SDS011;44460;40.162;18.294;2023-05-10T11:16:58;8.82;;;4.10;;
58681;SDS011;44460;40.162;18.294;2023-05-10T11:19:27;8.02;;;3.75;;
58681;SDS011;44460;40.162;18.294;2023-05-10T11:24:30;11.45;;;3.65;;
58681;SDS011;44460;40.162;18.294;2023-05-10T11:26:56;10.23;;;4.00;;
58681;SDS011;44460;40.162;18.294;2023-05-10T11:29:21;8.63;;;4.28;;
58681;SDS011;44460;40.162;18.294;2023-05-10T11:31:48;11.00;;;3.67;;
58681;SDS011;44460;40.162;18.294;2023-05-10T11:34:27;8.60;;;3.65;;
58681;SDS011;44460;40.162;18.294;2023-05-10T11:36:53;8.75;;;3.75;;
58681;SDS011;44460;40.162;18.294;2023-05-10T11:39:19;15.40;;;4.45;;
58681;SDS011;44460;40.162;18.294;2023-05-10T11:41:46;7.10;;;3.47;;
58681;SDS011;44460;40.162;18.294;2023-05-10T11:44:12;8.23;;;4.28;;
58681;SDS011;44460;40.162;18.294;2023-05-10T11:46:37;7.25;;;3.47;;
58681;SDS011;44460;40.162;18.294;2023-05-10T11:49:03;11.38;;;3.53;;
58681;SDS011;44460;40.162;18.294;2023-05-10T11:51:35;6.95;;;3.17;;
58681;SDS011;44460;40.162;18.294;2023-05-10T11:54:02;7.07;;;3.45;;
58681;SDS011;44460;40.162;18.294;2023-05-10T11:56:32;8.60;;;3.38;;
58681;SDS011;44460;40.162;18.294;2023-05-10T11:58:57;7.05;;;3.35;;
58681;SDS011;44460;40.162;18.294;2023-05-10T12:01:24;10.48;;;4.03;;
58681;SDS011;44460;40.162;18.294;2023-05-10T12:03:50;8.47;;;4.43;;
58681;SDS011;44460;40.162;18.294;2023-05-10T12:06:16;10.52;;;4.15;;
58681;SDS011;44460;40.162;18.294;2023-05-10T12:08:45;8.55;;;3.83;;
58681;SDS011;44460;40.162;18.294;2023-05-10T12:11:12;8.02;;;3.75;;
58681;SDS011;44460;40.162;18.294;2023-05-10T12:13:38;7.88;;;3.80;;
58681;SDS011;44460;40.162;18.294;2023-05-10T12:16:17;11.95;;;4.18;;
58681;SDS011;44460;40.162;18.294;2023-05-10T12:18:43;7.15;;;3.72;;
58681;SDS011;44460;40.162;18.294;2023-05-10T12:21:11;10.15;;;3.78;;
58681;SDS011;44460;40.162;18.294;2023-05-10T12:23:38;9.00;;;4.15;;
58681;SDS011;44460;40.162;18.294;2023-05-10T12:26:04;9.65;;;3.40;;
58681;SDS011;44460;40.162;18.294;2023-05-10T12:28:30;10.07;;;3.83;;
58681;SDS011;44460;40.162;18.294;2023-05-10T12:30:55;7.55;;;3.60;;
58681;SDS011;44460;40.162;18.294;2023-05-10T12:33:22;9.63;;;4.20;;
58681;SDS011;44460;40.162;18.294;2023-05-10T12:35:48;12.98;;;3.65;;
58681;SDS011;44460;40.162;18.294;2023-05-10T12:38:33;10.43;;;3.60;;
58681;SDS011;44460;40.162;18.294;2023-05-10T12:40:59;12.15;;;4.13;;
58681;SDS011;44460;40.162;18.294;2023-05-10T12:43:25;13.18;;;4.18;;
58681;SDS011;44460;40.162;18.294;2023-05-10T12:45:50;10.45;;;3.72;;
58681;SDS011;44460;40.162;18.294;2023-05-10T12:48:16;11.13;;;3.63;;
58681;SDS011;44460;40.162;18.294;2023-05-10T12:50:41;7.93;;;3.78;;
58681;SDS011;44460;40.162;18.294;2023-05-10T12:53:07;12.10;;;4.57;;
58681;SDS011;44460;40.162;18.294;2023-05-10T12:55:32;8.05;;;3.92;;
58681;SDS011;44460;40.162;18.294;2023-05-10T12:57:57;12.07;;;3.85;;
58681;SDS011;44460;40.162;18.294;2023-05-10T13:00:23;10.95;;;4.35;;
58681;SDS011;44460;40.162;18.294;2023-05-10T13:02:48;10.10;;;3.60;;
58681;SDS011;44460;40.162;18.294;2023-05-10T13:05:14;11.15;;;4.22;;
58681;SDS011;44460;40.162;18.294;2023-05-10T13:07:39;11.90;;;3.95;;
58681;SDS011;44460;40.162;18.294;2023-05-10T13:10:06;11.55;;;3.63;;
58681;SDS011;44460;40.162;18.294;2023-05-10T13:12:31;10.25;;;3.97;;
58681;SDS011;44460;40.162;18.294;2023-05-10T13:14:57;8.38;;;4.20;;
58681;SDS011;44460;40.162;18.294;2023-05-10T13:17:22;9.13;;;3.80;;
58681;SDS011;44460;40.162;18.294;2023-05-10T13:19:48;11.20;;;3.90;;
58681;SDS011;44460;40.162;18.294;2023-05-10T13:22:13;7.07;;;3.80;;
58681;SDS011;44460;40.162;18.294;2023-05-10T13:24:39;13.65;;;4.03;;
58681;SDS011;44460;40.162;18.294;2023-05-10T13:27:04;10.45;;;3.70;;
58681;SDS011;44460;40.162;18.294;2023-05-10T13:29:30;9.35;;;4.00;;
58681;SDS011;44460;40.162;18.294;2023-05-10T13:31:55;8.13;;;3.92;;
58681;SDS011;44460;40.162;18.294;2023-05-10T13:34:21;11.52;;;4.50;;
58681;SDS011;44460;40.162;18.294;2023-05-10T13:36:47;10.32;;;4.00;;
58681;SDS011;44460;40.162;18.294;2023-05-10T13:39:12;7.68;;;3.92;;
58681;SDS011;44460;40.162;18.294;2023-05-10T13:41:37;10.07;;;4.00;;
58681;SDS011;44460;40.162;18.294;2023-05-10T13:44:03;9.50;;;3.67;;
58681;SDS011;44460;40.162;18.294;2023-05-10T13:46:29;9.95;;;4.80;;
58681;SDS011;44460;40.162;18.294;2023-05-10T13:48:55;7.60;;;3.65;;
58681;SDS011;44460;40.162;18.294;2023-05-10T13:51:22;9.00;;;3.95;;
58681;SDS011;44460;40.162;18.294;2023-05-10T13:53:47;10.85;;;3.88;;
58681;SDS011;44460;40.162;18.294;2023-05-10T13:56:13;10.40;;;3.97;;
58681;SDS011;44460;40.162;18.294;2023-05-10T13:58:39;10.02;;;3.65;;
58681;SDS011;44460;40.162;18.294;2023-05-10T14:01:04;7.43;;;3.50;;
58681;SDS011;44460;40.162;18.294;2023-05-10T14:03:30;9.63;;;3.85;;
58681;SDS011;44460;40.162;18.294;2023-05-10T14:05:55;8.20;;;3.42;;
58681;SDS011;44460;40.162;18.294;2023-05-10T14:08:21;9.07;;;4.00;;
58681;SDS011;44460;40.162;18.294;2023-05-10T14:10:46;6.30;;;3.33;;
58681;SDS011;44460;40.162;18.294;2023-05-10T14:13:12;8.13;;;4.50;;
58681;SDS011;44460;40.162;18.294;2023-05-10T14:15:38;8.15;;;3.70;;
58681;SDS011;44460;40.162;18.294;2023-05-10T14:18:03;9.30;;;3.63;;
58681;SDS011;44460;40.162;18.294;2023-05-10T14:20:28;8.32;;;3.50;;
58681;SDS011;44460;40.162;18.294;2023-05-10T14:22:54;10.93;;;4.40;;
58681;SDS011;44460;40.162;18.294;2023-05-10T14:25:19;10.48;;;3.67;;
58681;SDS011;44460;40.162;18.294;2023-05-10T14:27:45;9.80;;;3.78;;
58681;SDS011;44460;40.162;18.294;2023-05-10T14:30:10;6.70;;;3.42;;
58681;SDS011;44460;40.162;18.294;2023-05-10T14:32:36;9.20;;;3.95;;
58681;SDS011;44460;40.162;18.294;2023-05-10T14:35:02;8.40;;;4.00;;
58681;SDS011;44460;40.162;18.294;2023-05-10T14:37:28;10.25;;;4.15;;
58681;SDS011;44460;40.162;18.294;2023-05-10T14:39:53;10.07;;;3.90;;
58681;SDS011;44460;40.162;18.294;2023-05-10T14:42:19;9.27;;;4.60;;
58681;SDS011;44460;40.162;18.294;2023-05-10T14:44:44;11.15;;;4.05;;
58681;SDS011;44460;40.162;18.294;2023-05-10T14:47:10;7.13;;;4.38;;
58681;SDS011;44460;40.162;18.294;2023-05-10T14:49:35;9.25;;;4.38;;
58681;SDS011;44460;40.162;18.294;2023-05-10T14:52:03;8.77;;;4.35;;
58681;SDS011;44460;40.162;18.294;2023-05-10T14:54:29;10.68;;;4.10;;